Time;durP1;ratioP1;P1;durP2;ratioP2;P2;SDS_P1;SDS_P2;PMS_P1;PMS_P2;Temp;Humidity;BMP_temperature;BMP_pressure;BME280_temperature;BME280_humidity;BME280_pressure;Samples;Min_cycle;Max_cycle;Signal;HPM_P1;HPM_P2
2023/10/05 00:01:07;;;;;;;;;;;17.70;75.00;;;;;;5095083;28;19981;-55
2023/10/05 00:03:34;;;;;;;;;;;17.70;75.10;;;;;;5094868;28;20272;-55
2023/10/05 00:06:05;;;;;;;;;;;17.70;75.00;;;;;;5095304;28;19961;-54
2023/10/05 00:08:35;;;;;;;;;;;17.70;75.10;;;;;;5094777;28;19908;-55
2023/10/05 00:11:01;;;;;;;;;;;17.70;75.10;;;;;;5095248;28;20412;-55
2023/10/05 00:13:26;;;;;;;;;;;17.70;75.10;;;;;;5094699;28;19908;-54
2023/10/05 00:15:52;;;;;;;;;;;17.70;75.10;;;;;;5076731;28;20339;-54
2023/10/05 00:18:20;;;;;;;;;;;17.70;75.10;;;;;;5094663;28;19912;-54
2023/10/05 00:20:48;;;;;;;;;;;17.70;75.00;;;;;;5094657;28;20455;-54
2023/10/05 00:23:14;;;;;;;;;;;17.70;75.10;;;;;;5094582;28;19916;-55
2023/10/05 00:25:39;;;;;;;;;;;17.70;75.10;;;;;;5095190;28;20509;-53
2023/10/05 00:28:09;;;;;;;;;;;17.70;75.30;;;;;;5094575;28;19922;-54
2023/10/05 00:30:35;;;;;;;;;;;17.70;75.20;;;;;;5094561;28;20272;-54
2023/10/05 00:33:00;;;;;;;;;;;17.70;75.20;;;;;;5094378;28;19915;-54
2023/10/05 00:35:28;;;;;;;;;;;17.60;75.20;;;;;;5093390;28;19915;-55
2023/10/05 00:38:08;;;;;;;;;;;17.60;75.40;;;;;;5094328;28;19912;-54
2023/10/05 00:40:36;;;;;;;;;;;17.60;75.40;;;;;;5101123;28;19919;-55
2023/10/05 00:43:07;;;;;;;;;;;17.60;75.40;;;;;;5094192;28;19919;-55
2023/10/05 00:45:33;;;;;;;;;;;17.60;75.50;;;;;;5083635;28;19908;-54
2023/10/05 00:48:09;;;;;;;;;;;17.60;75.50;;;;;;5094159;28;19908;-54
2023/10/05 00:50:35;;;;;;;;;;;17.60;75.40;;;;;;5101092;28;19908;-54
2023/10/05 00:53:01;;;;;;;;;;;17.60;75.30;;;;;;5093920;28;20304;-53
2023/10/05 00:55:27;;;;;;;;;;;17.60;75.30;;;;;;5076530;28;19908;-54
2023/10/05 00:57:54;;;;;;;;;;;17.60;75.30;;;;;;5093978;28;19908;-53
2023/10/05 01:00:28;;;;;;;;;;;17.60;75.40;;;;;;5093803;28;19908;-55
2023/10/05 01:05:49;;;;;;;;;;;17.70;75.30;;;;;;5078499;28;19981;-54
2023/10/05 01:08:16;;;;;;;;;;;17.70;75.30;;;;;;5094036;28;20290;-55
2023/10/05 01:10:47;;;;;;;;;;;17.70;75.30;;;;;;5093662;28;20018;-55
2023/10/05 01:13:23;;;;;;;;;;;17.60;75.50;;;;;;5100238;28;20380;-54
2023/10/05 01:15:50;;;;;;;;;;;17.60;75.60;;;;;;5093612;28;19908;-54
2023/10/05 01:18:16;;;;;;;;;;;17.60;75.60;;;;;;5075657;28;19931;-54
2023/10/05 01:20:43;;;;;;;;;;;17.60;75.70;;;;;;5093724;28;19908;-54
2023/10/05 01:23:08;;;;;;;;;;;17.50;75.70;;;;;;5093378;28;19912;-54
2023/10/05 01:25:36;;;;;;;;;;;17.60;75.90;;;;;;5094008;28;19934;-55
2023/10/05 01:28:01;;;;;;;;;;;17.60;75.80;;;;;;5093458;28;19916;-53
2023/10/05 01:30:27;;;;;;;;;;;17.60;75.70;;;;;;5109027;28;20487;-54
2023/10/05 01:32:54;;;;;;;;;;;17.60;75.80;;;;;;5093406;28;20003;-55
2023/10/05 01:35:20;;;;;;;;;;;17.60;75.70;;;;;;5093360;28;19915;-54
2023/10/05 01:37:46;;;;;;;;;;;17.60;75.70;;;;;;5093291;28;19912;-55
2023/10/05 01:42:45;;;;;;;;;;;17.60;75.70;;;;;;5100338;28;19916;-54
2023/10/05 01:45:15;;;;;;;;;;;17.60;75.60;;;;;;5093172;28;19987;-53
2023/10/05 01:47:43;;;;;;;;;;;17.60;75.70;;;;;;5108571;28;19915;-54
2023/10/05 01:50:16;;;;;;;;;;;17.60;75.80;;;;;;5093326;28;19908;-55
2023/10/05 01:52:41;;;;;;;;;;;17.60;75.90;;;;;;5071456;28;20260;-54
2023/10/05 01:55:08;;;;;;;;;;;17.50;76.10;;;;;;5080026;28;19916;-55
2023/10/05 01:57:35;;;;;;;;;;;17.50;76.10;;;;;;5093311;28;19919;-54
2023/10/05 02:00:02;;;;;;;;;;;17.50;76.10;;;;;;5093048;28;19908;-55
2023/10/05 02:02:29;;;;;;;;;;;17.50;76.10;;;;;;5093173;28;19918;-55
2023/10/05 02:04:55;;;;;;;;;;;17.50;76.10;;;;;;5093055;28;20421;-54
2023/10/05 02:07:23;;;;;;;;;;;17.50;76.10;;;;;;5092948;28;19908;-54
2023/10/05 02:09:49;;;;;;;;;;;17.40;76.00;;;;;;5091617;28;19916;-54
2023/10/05 02:12:14;;;;;;;;;;;17.50;76.10;;;;;;5091610;28;19908;-55
2023/10/05 02:14:41;;;;;;;;;;;17.50;76.10;;;;;;5092841;28;19909;-54
2023/10/05 02:17:10;;;;;;;;;;;17.50;76.10;;;;;;5092733;28;19908;-54
2023/10/05 02:19:38;;;;;;;;;;;17.50;76.10;;;;;;5092735;28;19961;-54
2023/10/05 02:22:10;;;;;;;;;;;17.50;76.10;;;;;;5092726;28;19923;-55
2023/10/05 02:24:36;;;;;;;;;;;17.50;76.10;;;;;;5097255;28;20925;-55
2023/10/05 02:29:28;;;;;;;;;;;17.50;76.10;;;;;;5072717;28;20200;-55
2023/10/05 02:34:22;;;;;;;;;;;17.50;76.00;;;;;;5072790;28;19908;-55
2023/10/05 02:36:50;;;;;;;;;;;17.50;76.10;;;;;;5072432;28;19916;-54
2023/10/05 02:39:16;;;;;;;;;;;17.50;76.10;;;;;;5072366;28;20319;-54
2023/10/05 02:41:43;;;;;;;;;;;17.50;76.00;;;;;;5071204;28;19935;-55
2023/10/05 02:44:17;;;;;;;;;;;17.50;76.10;;;;;;5072363;28;19952;-55
2023/10/05 02:46:49;;;;;;;;;;;17.50;76.10;;;;;;5055569;28;19920;-54
2023/10/05 02:49:15;;;;;;;;;;;17.50;76.10;;;;;;5072220;28;19912;-54
2023/10/05 02:51:41;;;;;;;;;;;17.50;76.10;;;;;;5079199;28;19920;-55
2023/10/05 02:54:10;;;;;;;;;;;17.60;76.10;;;;;;5092480;28;19931;-55
2023/10/05 02:56:35;;;;;;;;;;;17.60;76.10;;;;;;5111833;28;19915;-54
2023/10/05 02:59:07;;;;;;;;;;;17.60;76.00;;;;;;5115387;28;19907;-54
2023/10/05 03:01:37;;;;;;;;;;;17.60;76.00;;;;;;5123540;28;19907;-54
2023/10/05 03:06:41;;;;;;;;;;;17.60;76.10;;;;;;5123689;28;19908;-54
2023/10/05 03:09:09;;;;;;;;;;;17.60;76.10;;;;;;5098089;28;19931;-55
2023/10/05 03:11:38;;;;;;;;;;;17.60;76.10;;;;;;5116378;28;19912;-54
2023/10/05 03:14:07;;;;;;;;;;;17.60;77.00;;;;;;5116236;28;19957;-54
2023/10/05 03:16:43;;;;;;;;;;;17.50;76.10;;;;;;5123081;28;20291;-55
2023/10/05 03:19:14;;;;;;;;;;;17.50;76.10;;;;;;5098008;28;19939;-55
2023/10/05 03:21:40;;;;;;;;;;;17.60;76.20;;;;;;5097840;28;19946;-54
2023/10/05 03:24:13;;;;;;;;;;;17.50;76.10;;;;;;5116019;28;19953;-55
2023/10/05 03:26:39;;;;;;;;;;;17.50;76.10;;;;;;5097757;28;19908;-54
2023/10/05 03:29:04;;;;;;;;;;;17.60;76.20;;;;;;5097854;28;19950;-54
2023/10/05 03:31:32;;;;;;;;;;;17.60;76.20;;;;;;5115933;28;19912;-54
2023/10/05 03:33:57;;;;;;;;;;;17.60;76.20;;;;;;5115881;28;19915;-54
2023/10/05 03:36:23;;;;;;;;;;;17.60;76.20;;;;;;5115852;28;19912;-55
2023/10/05 03:38:57;;;;;;;;;;;17.60;76.20;;;;;;5115656;28;19908;-54
2023/10/05 03:41:25;;;;;;;;;;;17.50;76.10;;;;;;5081663;28;19915;-55
2023/10/05 03:43:51;;;;;;;;;;;17.50;76.10;;;;;;5097267;28;19919;-55
2023/10/05 03:46:17;;;;;;;;;;;17.50;76.20;;;;;;5115585;28;19907;-55
2023/10/05 03:48:42;;;;;;;;;;;17.50;76.50;;;;;;5115570;28;19917;-54
2023/10/05 03:51:08;;;;;;;;;;;17.50;76.70;;;;;;5115394;28;20426;-54
2023/10/05 03:53:34;;;;;;;;;;;17.50;76.70;;;;;;5122352;28;19947;-54
2023/10/05 03:55:59;;;;;;;;;;;17.40;76.80;;;;;;5115307;28;20281;-55
2023/10/05 03:58:25;;;;;;;;;;;17.40;76.80;;;;;;5115310;28;19998;-55
2023/10/05 04:00:50;;;;;;;;;;;17.40;76.80;;;;;;5115217;28;19908;-54
2023/10/05 04:03:19;;;;;;;;;;;17.40;76.90;;;;;;5115298;28;19911;-54
2023/10/05 04:05:44;;;;;;;;;;;17.50;76.70;;;;;;5115240;28;19912;-54
2023/10/05 04:08:16;;;;;;;;;;;17.50;76.70;;;;;;5115244;28;20003;-54
2023/10/05 04:10:49;;;;;;;;;;;17.50;76.70;;;;;;5096636;28;20158;-55
2023/10/05 04:13:16;;;;;;;;;;;17.50;76.90;;;;;;5114954;28;19912;-54
2023/10/05 04:15:41;;;;;;;;;;;17.50;76.80;;;;;;5114926;28;19908;-53
2023/10/05 04:18:15;;;;;;;;;;;17.50;76.90;;;;;;5096462;28;19973;-54
2023/10/05 04:20:43;;;;;;;;;;;17.50;77.00;;;;;;5114763;28;19907;-54
2023/10/05 04:23:10;;;;;;;;;;;17.50;77.00;;;;;;5114824;28;19970;-55
2023/10/05 04:25:35;;;;;;;;;;;17.50;77.00;;;;;;5114760;28;19915;-54
2023/10/05 04:28:01;;;;;;;;;;;17.50;77.10;;;;;;5114892;28;19908;-54
2023/10/05 04:30:27;;;;;;;;;;;17.40;77.30;;;;;;5114677;28;20041;-54
2023/10/05 04:32:53;;;;;;;;;;;17.50;77.40;;;;;;5114710;28;19991;-55
2023/10/05 04:35:28;;;;;;;;;;;17.50;77.40;;;;;;5114656;28;19992;-55
2023/10/05 04:37:54;;;;;;;;;;;17.40;77.40;;;;;;5114642;28;19908;-54
2023/10/05 04:40:24;;;;;;;;;;;17.50;77.50;;;;;;5114585;28;19912;-54
2023/10/05 04:42:52;;;;;;;;;;;17.40;77.40;;;;;;5114364;28;20391;-54
2023/10/05 04:45:20;;;;;;;;;;;17.50;77.60;;;;;;5114528;28;19907;-55
2023/10/05 04:47:48;;;;;;;;;;;17.40;77.60;;;;;;5114393;28;19908;-55
2023/10/05 04:50:15;;;;;;;;;;;17.40;77.60;;;;;;5079242;28;19961;-54
2023/10/05 04:52:41;;;;;;;;;;;17.40;77.80;;;;;;5114105;28;20006;-54
2023/10/05 04:55:30;;;;;;;;;;;17.40;77.80;;;;;;5114458;28;19943;-54
2023/10/05 04:58:14;;;;;;;;;;;17.40;78.10;;;;;;5095955;28;19931;-54
2023/10/05 05:03:32;;;;;;;;;;;17.40;78.00;;;;;;5114339;28;20002;-54
2023/10/05 05:08:32;;;;;;;;;;;17.40;78.10;;;;;;5121172;28;19908;-55
2023/10/05 05:10:58;;;;;;;;;;;17.40;78.10;;;;;;5113971;28;19930;-55
2023/10/05 05:13:27;;;;;;;;;;;17.40;78.30;;;;;;5113719;28;19915;-54
2023/10/05 05:15:52;;;;;;;;;;;17.40;78.30;;;;;;5113773;28;20324;-54
2023/10/05 05:18:19;;;;;;;;;;;17.50;78.30;;;;;;5113730;28;20003;-55
2023/10/05 05:20:44;;;;;;;;;;;17.40;78.50;;;;;;5113279;28;19919;-55
2023/10/05 05:23:12;;;;;;;;;;;17.40;78.80;;;;;;5113579;28;19912;-56
2023/10/05 05:25:38;;;;;;;;;;;17.40;78.90;;;;;;5095270;28;20376;-55
2023/10/05 05:28:05;;;;;;;;;;;17.40;79.20;;;;;;5113762;28;19907;-54
2023/10/05 05:30:36;;;;;;;;;;;17.40;79.30;;;;;;5113658;28;19933;-55
2023/10/05 05:33:02;;;;;;;;;;;17.40;79.30;;;;;;5113596;28;19912;-55
2023/10/05 05:35:28;;;;;;;;;;;17.40;79.50;;;;;;5113626;28;20368;-54
2023/10/05 05:37:56;;;;;;;;;;;17.40;79.60;;;;;;5113461;28;19969;-55
2023/10/05 05:40:21;;;;;;;;;;;17.40;79.70;;;;;;5113388;28;19908;-54
2023/10/05 05:42:47;;;;;;;;;;;17.40;79.70;;;;;;5113327;28;19918;-55
2023/10/05 05:45:16;;;;;;;;;;;17.40;80.60;;;;;;5113569;28;19907;-54
2023/10/05 05:47:42;;;;;;;;;;;17.40;79.90;;;;;;5113387;28;19912;-54
2023/10/05 05:50:08;;;;;;;;;;;17.40;80.10;;;;;;5113347;28;19908;-55
2023/10/05 05:52:35;;;;;;;;;;;17.40;80.10;;;;;;5113134;28;19923;-54
2023/10/05 05:55:09;;;;;;;;;;;17.40;80.20;;;;;;5113434;28;19957;-54
2023/10/05 05:57:35;;;;;;;;;;;17.40;80.20;;;;;;5120054;28;19961;-55
2023/10/05 06:00:10;;;;;;;;;;;17.40;80.20;;;;;;5113287;28;19907;-55
2023/10/05 06:02:39;;;;;;;;;;;17.40;80.30;;;;;;5113462;28;19919;-54
2023/10/05 06:05:08;;;;;;;;;;;17.40;80.30;;;;;;5113324;28;19949;-55
2023/10/05 06:07:33;;;;;;;;;;;17.40;80.30;;;;;;5112996;28;20011;-57
2023/10/05 06:09:59;;;;;;;;;;;17.40;80.50;;;;;;5113244;28;20382;-54
2023/10/05 06:12:25;;;;;;;;;;;17.40;80.60;;;;;;5113102;28;19919;-55
2023/10/05 06:14:50;;;;;;;;;;;17.40;80.80;;;;;;5113111;28;19908;-55
2023/10/05 06:17:16;;;;;;;;;;;17.40;80.90;;;;;;5113022;28;20347;-55
2023/10/05 06:19:41;;;;;;;;;;;17.40;81.20;;;;;;5113125;28;19908;-55
2023/10/05 06:22:07;;;;;;;;;;;17.40;81.10;;;;;;5112882;28;19914;-55
2023/10/05 06:24:35;;;;;;;;;;;17.40;81.30;;;;;;5113222;28;19915;-55
2023/10/05 06:27:00;;;;;;;;;;;17.40;81.30;;;;;;5113111;28;19908;-55
2023/10/05 06:29:26;;;;;;;;;;;17.40;81.40;;;;;;5112867;28;19915;-55
2023/10/05 06:31:52;;;;;;;;;;;17.40;81.40;;;;;;5113633;28;19912;-54
2023/10/05 06:34:17;;;;;;;;;;;17.40;81.50;;;;;;5098766;28;19907;-55
2023/10/05 06:36:43;;;;;;;;;;;17.40;81.40;;;;;;5116850;28;19952;-53
2023/10/05 06:39:14;;;;;;;;;;;17.40;81.50;;;;;;5116951;28;19908;-54
2023/10/05 06:41:40;;;;;;;;;;;17.50;81.50;;;;;;5116884;28;19912;-55
2023/10/05 06:44:07;;;;;;;;;;;17.50;81.60;;;;;;5116621;28;19934;-53
2023/10/05 06:46:33;;;;;;;;;;;17.50;81.60;;;;;;5116761;28;19912;-54
2023/10/05 06:48:58;;;;;;;;;;;17.40;81.70;;;;;;5116984;28;19907;-55
2023/10/05 06:51:27;;;;;;;;;;;17.40;81.90;;;;;;5098089;28;20364;-55
2023/10/05 06:53:57;;;;;;;;;;;17.40;81.90;;;;;;5116454;28;19908;-55
2023/10/05 06:56:23;;;;;;;;;;;17.40;82.00;;;;;;5116565;28;19908;-54
2023/10/05 06:58:48;;;;;;;;;;;17.40;82.00;;;;;;5098160;28;20475;-55
2023/10/05 07:01:14;;;;;;;;;;;17.40;82.30;;;;;;5098124;28;19915;-53
2023/10/05 07:03:40;;;;;;;;;;;17.40;82.40;;;;;;5097950;28;20338;-55
2023/10/05 07:06:05;;;;;;;;;;;17.40;82.40;;;;;;5116330;28;19908;-54
2023/10/05 07:08:31;;;;;;;;;;;17.40;82.50;;;;;;5081129;28;19960;-54
2023/10/05 07:10:57;;;;;;;;;;;17.40;82.80;;;;;;5116383;28;20009;-54
2023/10/05 07:13:22;;;;;;;;;;;17.40;82.50;;;;;;5116176;28;19908;-54
2023/10/05 07:15:48;;;;;;;;;;;17.50;82.50;;;;;;5116249;28;19919;-54
2023/10/05 07:18:15;;;;;;;;;;;17.50;82.50;;;;;;5116060;28;19908;-54
2023/10/05 07:20:41;;;;;;;;;;;17.50;82.60;;;;;;5116055;28;20041;-55
2023/10/05 07:23:07;;;;;;;;;;;17.50;82.60;;;;;;5115870;28;20006;-54
2023/10/05 07:25:33;;;;;;;;;;;17.50;82.50;;;;;;5115898;28;19908;-54
2023/10/05 07:27:59;;;;;;;;;;;17.50;82.40;;;;;;5115911;28;19908;-54
2023/10/05 07:30:24;;;;;;;;;;;17.50;82.40;;;;;;5097672;28;19919;-54
2023/10/05 07:32:50;;;;;;;;;;;17.50;82.70;;;;;;5115897;28;19918;-54
2023/10/05 07:35:15;;;;;;;;;;;17.60;82.70;;;;;;5115916;28;20328;-55
2023/10/05 07:37:41;;;;;;;;;;;17.60;83.00;;;;;;5115850;28;19912;-55
2023/10/05 07:40:13;;;;;;;;;;;17.60;82.80;;;;;;5115858;28;19951;-55
2023/10/05 07:42:39;;;;;;;;;;;17.60;82.70;;;;;;5097774;28;19912;-55
2023/10/05 07:45:07;;;;;;;;;;;17.60;82.70;;;;;;5115005;28;20006;-55
2023/10/05 07:47:33;;;;;;;;;;;17.60;82.80;;;;;;5115585;28;19908;-55
2023/10/05 07:49:59;;;;;;;;;;;17.60;82.90;;;;;;5115835;28;19912;-55
2023/10/05 07:52:24;;;;;;;;;;;17.60;82.80;;;;;;5115374;28;19977;-55
2023/10/05 07:54:51;;;;;;;;;;;17.60;82.70;;;;;;5115480;28;19961;-53
2023/10/05 07:57:17;;;;;;;;;;;17.60;82.60;;;;;;5115541;28;19947;-54
2023/10/05 07:59:42;;;;;;;;;;;17.60;82.50;;;;;;5115355;28;20347;-53
2023/10/05 08:02:08;;;;;;;;;;;17.60;82.30;;;;;;5115197;28;19911;-54
2023/10/05 08:04:34;;;;;;;;;;;17.60;82.70;;;;;;5115350;28;19943;-55
2023/10/05 08:06:59;;;;;;;;;;;17.60;82.50;;;;;;5115179;28;19915;-55
2023/10/05 08:09:27;;;;;;;;;;;17.60;82.30;;;;;;5096737;28;19915;-54
2023/10/05 08:11:53;;;;;;;;;;;17.60;82.30;;;;;;5115011;28;19908;-54
2023/10/05 08:14:20;;;;;;;;;;;17.60;82.20;;;;;;5115213;28;19914;-54
2023/10/05 08:16:48;;;;;;;;;;;17.60;82.50;;;;;;5114992;28;19927;-54
2023/10/05 08:19:15;;;;;;;;;;;17.60;82.40;;;;;;5115039;28;20363;-54
2023/10/05 08:21:41;;;;;;;;;;;17.60;82.60;;;;;;5114877;28;19912;-55
2023/10/05 08:24:07;;;;;;;;;;;17.60;82.60;;;;;;5114583;28;19962;-54
2023/10/05 08:26:33;;;;;;;;;;;17.60;83.50;;;;;;5114846;28;19939;-55
2023/10/05 08:28:59;;;;;;;;;;;17.60;83.00;;;;;;5096774;28;19919;-54
2023/10/05 08:31:25;;;;;;;;;;;17.60;83.30;;;;;;5114694;28;19912;-55
2023/10/05 08:33:53;;;;;;;;;;;17.50;83.60;;;;;;5114673;28;19908;-53
2023/10/05 08:36:19;;;;;;;;;;;17.60;84.00;;;;;;5114732;28;19908;-55
2023/10/05 08:38:48;;;;;;;;;;;17.60;84.00;;;;;;5114787;28;20006;-55
2023/10/05 08:41:32;;;;;;;;;;;17.60;83.90;;;;;;5114595;28;19915;-55
2023/10/05 08:43:58;;;;;;;;;;;17.60;83.80;;;;;;5114391;28;20355;-53
2023/10/05 08:46:24;;;;;;;;;;;17.60;83.90;;;;;;5114453;28;20356;-54
2023/10/05 08:48:50;;;;;;;;;;;17.60;84.20;;;;;;5096256;28;19915;-54
2023/10/05 08:51:16;;;;;;;;;;;17.60;84.60;;;;;;5114326;28;20391;-55
2023/10/05 08:53:44;;;;;;;;;;;17.60;84.40;;;;;;5096093;28;19927;-55
2023/10/05 08:56:13;;;;;;;;;;;17.60;84.20;;;;;;5113209;28;20304;-55
2023/10/05 08:58:48;;;;;;;;;;;17.60;84.00;;;;;;5095807;28;20027;-54
2023/10/05 09:01:32;;;;;;;;;;;17.60;84.20;;;;;;5114330;28;19908;-54
2023/10/05 09:04:01;;;;;;;;;;;17.60;84.10;;;;;;5114015;28;19962;-54
2023/10/05 09:06:27;;;;;;;;;;;17.60;84.00;;;;;;5113984;28;19908;-53
2023/10/05 09:09:08;;;;;;;;;;;17.60;84.10;;;;;;5114089;28;19908;-54
2023/10/05 09:11:34;;;;;;;;;;;17.60;84.10;;;;;;5114059;28;19974;-54
2023/10/05 09:14:27;;;;;;;;;;;17.60;84.30;;;;;;5113870;28;19920;-55
2023/10/05 09:16:47;;;;;;;;;;;17.60;84.00;;;;;;5113553;28;19908;-54
2023/10/05 09:19:17;;;;;;;;;;;17.60;84.60;;;;;;5113867;28;19954;-54
2023/10/05 09:21:50;;;;;;;;;;;17.60;84.60;;;;;;5114191;28;19961;-54
2023/10/05 09:24:22;;;;;;;;;;;17.60;84.70;;;;;;5113699;28;19912;-54
2023/10/05 09:26:51;;;;;;;;;;;17.60;85.10;;;;;;5093381;28;19954;-54
2023/10/05 09:29:22;;;;;;;;;;;17.60;84.90;;;;;;5093386;28;19916;-54
2023/10/05 09:31:51;;;;;;;;;;;17.60;85.10;;;;;;5093188;28;20383;-55
2023/10/05 09:34:20;;;;;;;;;;;17.60;84.70;;;;;;5093406;28;20019;-54
2023/10/05 09:36:45;;;;;;;;;;;17.60;84.70;;;;;;5093287;28;20253;-55
2023/10/05 09:39:11;;;;;;;;;;;17.60;84.80;;;;;;5093188;28;20010;-54
2023/10/05 09:41:37;;;;;;;;;;;17.70;84.60;;;;;;5093097;28;19908;-53
2023/10/05 09:44:07;;;;;;;;;;;17.70;84.10;;;;;;5074854;28;20265;-53
2023/10/05 09:46:34;;;;;;;;;;;17.70;84.10;;;;;;5093032;28;19908;-54
2023/10/05 09:49:01;;;;;;;;;;;17.70;83.70;;;;;;5092936;28;19908;-53
2023/10/05 09:51:27;;;;;;;;;;;17.70;84.40;;;;;;5092675;28;19922;-54
2023/10/05 09:53:52;;;;;;;;;;;17.70;83.60;;;;;;5092768;28;19908;-53
2023/10/05 09:56:20;;;;;;;;;;;17.70;84.80;;;;;;5109932;28;20295;-54
2023/10/05 09:58:45;;;;;;;;;;;17.70;85.90;;;;;;5113125;28;20375;-54
2023/10/05 10:01:12;;;;;;;;;;;17.70;85.60;;;;;;5095011;28;19916;-54
2023/10/05 10:03:45;;;;;;;;;;;17.80;85.50;;;;;;5094801;28;19912;-53
2023/10/05 10:06:12;;;;;;;;;;;17.80;84.60;;;;;;5095782;28;20368;-54
2023/10/05 10:08:50;;;;;;;;;;;17.90;84.40;;;;;;5119876;28;20262;-53
2023/10/05 10:11:20;;;;;;;;;;;17.90;84.10;;;;;;5086575;28;19915;-54
2023/10/05 10:13:52;;;;;;;;;;;18.00;84.20;;;;;;5119951;28;19954;-54
2023/10/05 10:16:26;;;;;;;;;;;17.90;84.10;;;;;;5119873;28;19961;-54
2023/10/05 10:19:04;;;;;;;;;;;18.00;84.10;;;;;;5126710;28;20308;-55
2023/10/05 10:21:36;;;;;;;;;;;18.00;84.20;;;;;;5119821;28;19999;-53
2023/10/05 10:24:03;;;;;;;;;;;18.00;84.20;;;;;;5119709;28;19912;-53
2023/10/05 10:26:29;;;;;;;;;;;18.00;84.20;;;;;;5119864;28;19990;-53
2023/10/05 10:31:22;;;;;;;;;;;18.00;83.90;;;;;;5120343;28;19912;-54
2023/10/05 10:33:51;;;;;;;;;;;18.00;84.00;;;;;;5119991;28;19943;-54
2023/10/05 10:36:18;;;;;;;;;;;18.10;84.00;;;;;;5119819;28;19999;-55
2023/10/05 10:38:47;;;;;;;;;;;18.10;83.80;;;;;;5119716;28;19945;-55
2023/10/05 10:41:15;;;;;;;;;;;18.10;83.90;;;;;;5119631;28;19932;-55
2023/10/05 10:43:45;;;;;;;;;;;18.10;83.60;;;;;;5101212;28;19911;-54
2023/10/05 10:46:20;;;;;;;;;;;18.10;83.60;;;;;;5119711;28;19907;-54
2023/10/05 10:48:53;;;;;;;;;;;18.00;83.60;;;;;;5101574;28;19912;-55
2023/10/05 10:51:20;;;;;;;;;;;18.00;83.70;;;;;;5101758;28;20284;-54
2023/10/05 10:53:46;;;;;;;;;;;18.00;83.80;;;;;;5119671;28;20253;-54
2023/10/05 10:56:22;;;;;;;;;;;18.00;83.60;;;;;;5101299;28;19934;-55
2023/10/05 10:58:48;;;;;;;;;;;18.00;83.50;;;;;;5119454;28;19947;-54
2023/10/05 11:01:28;;;;;;;;;;;18.00;83.50;;;;;;5119409;28;19959;-54
2023/10/05 11:03:55;;;;;;;;;;;18.00;83.40;;;;;;5126208;28;19911;-55
2023/10/05 11:06:26;;;;;;;;;;;18.00;83.30;;;;;;5119416;28;19926;-54
2023/10/05 11:08:51;;;;;;;;;;;18.00;83.30;;;;;;5119470;28;20373;-55
2023/10/05 11:11:19;;;;;;;;;;;18.00;83.30;;;;;;5119384;28;19908;-55
2023/10/05 11:14:05;;;;;;;;;;;18.00;83.40;;;;;;5119209;28;19912;-54
2023/10/05 11:16:43;;;;;;;;;;;18.00;83.30;;;;;;5104281;28;19919;-55
2023/10/05 11:19:13;;;;;;;;;;;18.00;83.30;;;;;;5099584;28;19908;-54
2023/10/05 11:21:45;;;;;;;;;;;17.90;83.30;;;;;;5116169;28;19908;-55
2023/10/05 11:24:10;;;;;;;;;;;18.00;83.30;;;;;;5105735;28;20010;-54
2023/10/05 11:27:05;;;;;;;;;;;18.00;83.00;;;;;;5097857;28;19955;-54
2023/10/05 11:29:42;;;;;;;;;;;18.00;82.70;;;;;;5116056;28;20375;-55
2023/10/05 11:32:15;;;;;;;;;;;18.10;82.70;;;;;;5122833;28;19915;-55
2023/10/05 11:34:42;;;;;;;;;;;18.20;82.40;;;;;;5115944;28;20377;-54
2023/10/05 11:37:16;;;;;;;;;;;18.30;82.10;;;;;;5115881;28;19907;-54
2023/10/05 11:39:45;;;;;;;;;;;18.30;81.50;;;;;;5097641;28;19931;-54
2023/10/05 11:42:11;;;;;;;;;;;18.30;81.50;;;;;;5115641;28;19911;-55
2023/10/05 11:44:38;;;;;;;;;;;18.30;80.90;;;;;;5115601;28;20379;-54
2023/10/05 11:47:07;;;;;;;;;;;18.40;80.80;;;;;;5115398;28;19956;-54
2023/10/05 11:49:32;;;;;;;;;;;18.40;80.30;;;;;;5115469;28;20279;-53
2023/10/05 11:51:59;;;;;;;;;;;18.40;79.40;;;;;;5093643;28;19943;-54
2023/10/05 11:54:24;;;;;;;;;;;18.50;79.70;;;;;;5095042;28;19919;-55
2023/10/05 11:56:56;;;;;;;;;;;18.50;79.30;;;;;;5095110;28;19908;-55
2023/10/05 11:59:26;;;;;;;;;;;18.40;79.30;;;;;;5095158;28;19963;-55
2023/10/05 12:01:51;;;;;;;;;;;18.40;79.60;;;;;;5095269;28;19991;-55
2023/10/05 12:04:19;;;;;;;;;;;18.30;79.40;;;;;;5094785;28;19947;-54
2023/10/05 12:06:45;;;;;;;;;;;18.30;79.50;;;;;;5095024;28;19919;-55
2023/10/05 12:09:27;;;;;;;;;;;18.40;78.90;;;;;;5094894;28;20006;-55
2023/10/05 12:11:54;;;;;;;;;;;18.40;78.70;;;;;;5100566;28;19966;-55
2023/10/05 12:14:20;;;;;;;;;;;18.40;78.40;;;;;;5094771;28;19915;-55
2023/10/05 12:16:45;;;;;;;;;;;18.50;78.50;;;;;;5094651;28;19912;-55
2023/10/05 12:19:14;;;;;;;;;;;18.60;76.70;;;;;;5094587;28;19994;-54
2023/10/05 12:21:43;;;;;;;;;;;18.60;76.60;;;;;;5094714;28;19923;-54
2023/10/05 12:24:11;;;;;;;;;;;18.60;76.20;;;;;;5094605;28;19912;-54
2023/10/05 12:26:37;;;;;;;;;;;18.70;76.60;;;;;;5094772;28;20016;-55
2023/10/05 12:29:04;;;;;;;;;;;18.60;77.20;;;;;;5095016;28;19915;-53
2023/10/05 12:31:30;;;;;;;;;;;18.60;77.10;;;;;;5094278;28;19909;-54
2023/10/05 12:33:55;;;;;;;;;;;18.50;77.10;;;;;;5094639;28;19908;-55
2023/10/05 12:36:22;;;;;;;;;;;18.50;77.10;;;;;;5094401;28;20411;-55
2023/10/05 12:38:48;;;;;;;;;;;18.40;76.90;;;;;;5094365;28;19908;-55
2023/10/05 12:41:13;;;;;;;;;;;18.40;76.30;;;;;;5094339;28;19962;-55
2023/10/05 12:43:40;;;;;;;;;;;18.50;75.80;;;;;;5094082;28;19912;-53
2023/10/05 12:46:10;;;;;;;;;;;18.50;75.80;;;;;;5094018;28;19912;-55
2023/10/05 12:48:36;;;;;;;;;;;18.60;75.30;;;;;;5094088;28;20342;-54
2023/10/05 12:51:01;;;;;;;;;;;18.70;74.90;;;;;;5095570;28;20391;-55
2023/10/05 12:53:28;;;;;;;;;;;18.70;73.80;;;;;;5114358;28;19907;-54
2023/10/05 12:55:56;;;;;;;;;;;18.80;73.10;;;;;;5114257;28;19992;-55
2023/10/05 12:58:23;;;;;;;;;;;18.80;72.70;;;;;;5096460;28;19914;-55
2023/10/05 13:00:49;;;;;;;;;;;18.80;73.00;;;;;;5114160;28;19943;-54
2023/10/05 13:03:14;;;;;;;;;;;18.80;73.90;;;;;;5114172;28;20395;-55
2023/10/05 13:05:43;;;;;;;;;;;18.80;73.90;;;;;;5114077;28;19912;-55
2023/10/05 13:08:11;;;;;;;;;;;18.80;72.20;;;;;;5114119;28;19931;-54
2023/10/05 13:10:40;;;;;;;;;;;18.80;72.70;;;;;;5114135;28;20423;-56
2023/10/05 13:13:39;;;;;;;;;;;18.80;72.10;;;;;;5096006;28;20375;-54
2023/10/05 13:15:57;;;;;;;;;;;18.80;72.90;;;;;;5111063;28;19915;-55
2023/10/05 13:18:25;;;;;;;;;;;18.70;73.50;;;;;;5114005;28;19908;-54
2023/10/05 13:20:54;;;;;;;;;;;18.70;73.50;;;;;;5114051;28;19934;-55
2023/10/05 13:23:21;;;;;;;;;;;18.70;73.20;;;;;;5096010;28;19911;-55
2023/10/05 13:25:49;;;;;;;;;;;18.70;73.40;;;;;;5113605;28;19912;-55
2023/10/05 13:28:16;;;;;;;;;;;18.70;73.30;;;;;;5113714;28;19912;-53
2023/10/05 13:30:42;;;;;;;;;;;18.70;73.00;;;;;;5113632;28;20368;-55
2023/10/05 13:33:13;;;;;;;;;;;18.80;72.90;;;;;;5113659;28;19914;-54
2023/10/05 13:35:41;;;;;;;;;;;18.80;73.10;;;;;;5095459;28;19908;-54
2023/10/05 13:38:12;;;;;;;;;;;18.80;73.20;;;;;;5113465;28;19908;-54
2023/10/05 13:40:38;;;;;;;;;;;18.70;73.30;;;;;;5120580;28;19915;-55
2023/10/05 13:43:04;;;;;;;;;;;18.70;73.10;;;;;;5094777;28;19918;-54
2023/10/05 13:45:30;;;;;;;;;;;18.80;72.60;;;;;;5113449;28;19908;-54
2023/10/05 13:47:56;;;;;;;;;;;18.80;72.50;;;;;;5113391;28;19947;-55
2023/10/05 13:50:23;;;;;;;;;;;18.80;72.30;;;;;;5113472;28;19943;-54
2023/10/05 13:52:51;;;;;;;;;;;18.80;72.00;;;;;;5091672;28;19988;-54
2023/10/05 13:55:20;;;;;;;;;;;18.80;72.20;;;;;;5092871;28;19929;-55
2023/10/05 13:57:47;;;;;;;;;;;18.70;71.70;;;;;;5092750;28;19961;-55
2023/10/05 14:00:18;;;;;;;;;;;18.70;71.30;;;;;;5092737;28;20307;-54
2023/10/05 14:02:44;;;;;;;;;;;18.80;70.50;;;;;;5099649;28;20372;-54
2023/10/05 14:05:09;;;;;;;;;;;18.90;70.50;;;;;;5093067;28;19922;-55
2023/10/05 14:07:35;;;;;;;;;;;18.80;70.50;;;;;;5092912;28;19912;-55
2023/10/05 14:10:02;;;;;;;;;;;18.80;70.20;;;;;;5093048;28;19908;-54
2023/10/05 14:12:28;;;;;;;;;;;18.80;69.80;;;;;;5092845;28;20287;-55
2023/10/05 14:14:54;;;;;;;;;;;18.80;70.10;;;;;;5091631;28;19908;-55
2023/10/05 14:17:19;;;;;;;;;;;18.80;70.20;;;;;;5091641;28;20364;-55
2023/10/05 14:19:45;;;;;;;;;;;18.70;70.20;;;;;;5092651;28;19918;-55
2023/10/05 14:22:12;;;;;;;;;;;18.70;70.00;;;;;;5092824;28;19908;-54
2023/10/05 14:24:40;;;;;;;;;;;18.70;70.40;;;;;;5091367;28;19912;-55
2023/10/05 14:27:05;;;;;;;;;;;18.70;70.00;;;;;;5093076;28;19912;-54
2023/10/05 14:29:38;;;;;;;;;;;18.80;69.30;;;;;;5092703;28;20360;-55
2023/10/05 14:32:06;;;;;;;;;;;18.80;69.10;;;;;;5092840;28;19908;-54
2023/10/05 14:34:35;;;;;;;;;;;18.80;69.90;;;;;;5092773;28;19908;-54
2023/10/05 14:37:04;;;;;;;;;;;18.80;69.50;;;;;;5092707;28;20408;-54
2023/10/05 14:39:36;;;;;;;;;;;18.80;69.60;;;;;;5092607;28;19908;-54
2023/10/05 14:42:04;;;;;;;;;;;18.80;69.80;;;;;;5092745;28;19915;-55